createdAt,value
2019-05-03T00:01:49.910Z,5.75
2019-05-03T00:04:24.102Z,6.13
2019-05-03T00:06:59.013Z,5.83
2019-05-03T00:09:33.143Z,5.60
2019-05-03T00:12:06.888Z,5.67
2019-05-03T00:14:41.684Z,5.60
2019-05-03T00:17:15.548Z,5.63
2019-05-03T00:19:49.147Z,6.10
2019-05-03T00:22:23.105Z,6.08
2019-05-03T00:25:05.342Z,5.27
2019-05-03T00:27:32.242Z,5.67
2019-05-03T00:30:07.331Z,5.13
2019-05-03T00:32:42.618Z,5.23
2019-05-03T00:35:17.244Z,4.62
2019-05-03T00:37:52.528Z,5.42
2019-05-03T00:40:25.895Z,5.23
2019-05-03T00:43:02.158Z,5.55
2019-05-03T00:45:35.051Z,4.83
2019-05-03T00:48:08.630Z,5.37
2019-05-03T00:50:42.577Z,4.97
2019-05-03T00:53:18.473Z,4.73
2019-05-03T00:55:52.733Z,4.83
2019-05-03T00:58:26.300Z,4.50
2019-05-03T01:01:00.047Z,5.57
2019-05-03T01:03:33.999Z,4.83
2019-05-03T01:06:11.516Z,5.27
2019-05-03T01:08:45.042Z,5.23
2019-05-03T01:11:18.919Z,5.13
2019-05-03T01:13:52.505Z,4.97
2019-05-03T01:16:26.467Z,5.17
2019-05-03T01:19:02.476Z,5.55
2019-05-03T01:21:37.243Z,5.77
2019-05-03T01:24:12.315Z,5.57
2019-05-03T01:29:28.349Z,5.87
2019-05-03T01:32:02.294Z,5.25
2019-05-03T01:34:42.660Z,4.92
2019-05-03T01:37:17.211Z,5.40
2019-05-03T01:39:52.433Z,5.10
2019-05-03T01:42:25.644Z,5.03
2019-05-03T01:45:01.547Z,5.23
2019-05-03T01:47:34.543Z,5.57
2019-05-03T01:50:08.232Z,4.73
2019-05-03T01:52:42.587Z,5.27
2019-05-03T01:55:19.127Z,5.35
2019-05-03T01:57:53.439Z,5.95
2019-05-03T02:00:27.501Z,5.13
2019-05-03T02:03:02.186Z,5.67
2019-05-03T02:05:36.752Z,5.20
2019-05-03T02:08:12.915Z,4.90
2019-05-03T02:10:47.520Z,5.40
2019-05-03T02:13:22.805Z,5.87
2019-05-03T02:15:58.234Z,5.83
2019-05-03T02:18:31.973Z,5.65
2019-05-03T02:21:05.585Z,5.47
2019-05-03T02:23:39.512Z,5.83
2019-05-03T02:26:13.161Z,5.07
2019-05-03T02:28:47.451Z,5.55
2019-05-03T02:31:23.349Z,5.00
2019-05-03T02:33:58.619Z,4.57
2019-05-03T02:36:33.696Z,4.70
2019-05-03T02:39:09.507Z,5.17
2019-05-03T02:41:47.876Z,4.87
2019-05-03T02:44:19.584Z,4.33
2019-05-03T02:46:56.036Z,4.43
2019-05-03T02:49:28.407Z,4.22
2019-05-03T02:52:02.295Z,3.83
2019-05-03T02:54:36.347Z,3.07
2019-05-03T02:57:10.047Z,3.67
2019-05-03T02:59:45.323Z,3.27
2019-05-03T03:02:19.226Z,3.57
2019-05-03T03:04:56.166Z,3.30
2019-05-03T03:07:31.467Z,3.70
2019-05-03T03:10:17.627Z,3.10
2019-05-03T03:12:55.336Z,3.20
2019-05-03T03:15:36.135Z,3.17
2019-05-03T03:18:11.300Z,3.83
2019-05-03T03:20:48.243Z,3.57
2019-05-03T03:23:28.701Z,3.47
2019-05-03T03:26:06.178Z,3.40
2019-05-03T03:28:46.134Z,3.37
2019-05-03T03:34:12.143Z,3.20
2019-05-03T03:37:04.230Z,3.10
2019-05-03T03:39:32.682Z,3.00
2019-05-03T03:42:08.719Z,3.13
2019-05-03T03:44:42.553Z,2.90
2019-05-03T03:47:18.488Z,2.60
2019-05-03T03:49:55.287Z,2.80
2019-05-03T03:52:31.357Z,2.22
2019-05-03T03:55:06.437Z,2.60
2019-05-03T03:57:40.663Z,2.17
2019-05-03T04:00:16.271Z,2.83
2019-05-03T04:02:49.444Z,2.55
2019-05-03T04:05:25.444Z,2.50
2019-05-03T04:07:58.630Z,2.73
2019-05-03T04:10:35.021Z,2.30
2019-05-03T04:13:08.527Z,2.83
2019-05-03T04:15:45.100Z,2.60
2019-05-03T04:18:19.496Z,2.62
2019-05-03T04:20:55.931Z,3.13
2019-05-03T04:23:29.313Z,2.73
2019-05-03T04:26:03.374Z,2.43
2019-05-03T04:28:38.465Z,2.60
2019-05-03T04:31:15.073Z,2.67
2019-05-03T04:33:48.520Z,2.67
2019-05-03T04:36:22.418Z,2.40
2019-05-03T04:38:56.391Z,2.60
2019-05-03T04:41:30.589Z,3.00
2019-05-03T04:44:08.330Z,2.83
2019-05-03T04:46:46.252Z,2.60
2019-05-03T04:49:20.797Z,3.00
2019-05-03T04:52:01.481Z,2.95
2019-05-03T04:54:35.567Z,2.83
2019-05-03T04:57:34.267Z,2.87
2019-05-03T04:59:56.103Z,2.60
2019-05-03T05:02:31.237Z,2.75
2019-05-03T05:05:05.997Z,3.42
2019-05-03T05:07:40.011Z,2.53
2019-05-03T05:10:15.604Z,2.50
2019-05-03T05:12:50.683Z,2.37
2019-05-03T05:15:26.380Z,2.47
2019-05-03T05:18:00.904Z,2.50
2019-05-03T05:20:35.968Z,2.70
2019-05-03T05:23:09.616Z,3.03
2019-05-03T05:25:44.600Z,2.80
2019-05-03T05:28:19.094Z,2.90
2019-05-03T05:30:54.643Z,3.10
2019-05-03T05:33:28.808Z,2.87
2019-05-03T05:36:04.847Z,3.05
2019-05-03T05:38:38.908Z,3.13
2019-05-03T05:41:12.686Z,3.00
2019-05-03T05:43:46.546Z,3.00
2019-05-03T05:46:20.330Z,3.07
2019-05-03T05:48:55.386Z,3.42
2019-05-03T05:51:28.642Z,3.05
2019-05-03T05:54:02.303Z,3.10
2019-05-03T05:56:36.460Z,3.00
2019-05-03T05:59:10.312Z,3.20
2019-05-03T06:01:45.672Z,3.20
2019-05-03T06:04:19.609Z,3.70
2019-05-03T06:06:55.370Z,3.10
2019-05-03T06:09:29.397Z,3.30
2019-05-03T06:12:04.518Z,3.45
2019-05-03T06:14:38.364Z,3.40
2019-05-03T06:17:14.514Z,3.27
2019-05-03T06:19:47.398Z,3.53
2019-05-03T06:22:21.320Z,3.07
2019-05-03T06:24:56.376Z,3.33
2019-05-03T06:27:30.117Z,3.70
2019-05-03T06:30:04.717Z,3.52
2019-05-03T06:32:38.464Z,3.67
2019-05-03T06:35:12.369Z,4.37
2019-05-03T06:37:47.492Z,4.10
2019-05-03T06:40:25.170Z,3.77
2019-05-03T06:43:08.668Z,3.80
2019-05-03T06:45:46.670Z,3.33
2019-05-03T06:48:17.711Z,3.70
2019-05-03T06:50:52.386Z,4.20
2019-05-03T06:53:25.848Z,3.80
2019-05-03T06:55:59.830Z,3.80
2019-05-03T06:58:36.257Z,4.10
2019-05-03T07:01:11.213Z,3.87
2019-05-03T07:03:45.722Z,3.63
2019-05-03T07:06:33.342Z,4.10
2019-05-03T07:08:56.637Z,3.93
2019-05-03T07:11:30.279Z,4.15
2019-05-03T07:14:05.243Z,4.22
2019-05-03T07:16:38.738Z,3.97
2019-05-03T07:19:14.606Z,3.87
2019-05-03T07:21:47.288Z,4.17
2019-05-03T07:24:20.888Z,4.00
2019-05-03T07:26:55.086Z,4.28
2019-05-03T07:29:29.141Z,4.70
2019-05-03T07:32:05.184Z,3.83
2019-05-03T07:34:39.226Z,4.77
2019-05-03T07:37:14.451Z,4.10
2019-05-03T07:39:49.060Z,4.70
2019-05-03T07:42:22.931Z,4.27
2019-05-03T07:44:57.008Z,4.45
2019-05-03T07:47:30.649Z,4.00
2019-05-03T07:50:05.038Z,4.83
2019-05-03T07:52:59.891Z,4.70
2019-05-03T07:55:35.268Z,5.08
2019-05-03T07:58:10.300Z,4.73
2019-05-03T08:00:44.573Z,4.77
2019-05-03T08:03:18.588Z,4.53
2019-05-03T08:05:52.734Z,4.70
2019-05-03T08:08:28.247Z,4.65
2019-05-03T08:11:05.133Z,5.05
2019-05-03T08:13:46.110Z,4.83
2019-05-03T08:16:20.668Z,4.78
2019-05-03T08:18:55.902Z,4.70
2019-05-03T08:21:31.032Z,4.95
2019-05-03T08:24:04.986Z,4.73
2019-05-03T08:26:39.262Z,4.85
2019-05-03T08:29:18.499Z,5.10
2019-05-03T08:31:49.076Z,5.60
2019-05-03T08:34:23.005Z,5.63
2019-05-03T08:36:56.894Z,5.43
2019-05-03T08:39:31.781Z,5.13
2019-05-03T08:42:07.014Z,5.40
2019-05-03T08:44:42.280Z,4.70
2019-05-03T08:47:16.579Z,5.50
2019-05-03T08:49:55.390Z,5.57
2019-05-03T08:52:36.065Z,5.12
2019-05-03T08:55:11.038Z,5.50
2019-05-03T08:57:46.895Z,5.27
2019-05-03T09:00:21.755Z,5.70
2019-05-03T09:02:55.538Z,5.50
2019-05-03T09:05:30.010Z,5.73
2019-05-03T09:08:05.638Z,5.72
2019-05-03T09:10:40.760Z,6.12
2019-05-03T09:13:14.782Z,5.67
2019-05-03T09:15:49.135Z,6.13
2019-05-03T09:18:22.970Z,6.63
2019-05-03T09:20:57.262Z,6.03
2019-05-03T09:23:31.382Z,6.50
2019-05-03T09:26:06.681Z,6.67
2019-05-03T09:28:40.632Z,7.70
2019-05-03T09:31:15.518Z,7.07
2019-05-03T09:33:50.087Z,7.77
2019-05-03T09:36:25.322Z,8.90
2019-05-03T09:38:59.849Z,8.35
2019-05-03T09:41:34.719Z,9.33
2019-05-03T09:44:10.021Z,7.95
2019-05-03T09:46:44.659Z,9.43
2019-05-03T09:49:18.522Z,8.90
2019-05-03T09:51:54.641Z,9.13
2019-05-03T09:54:27.825Z,8.45
2019-05-03T09:57:01.588Z,9.83
2019-05-03T09:59:37.017Z,10.13
2019-05-03T10:02:12.644Z,8.98
2019-05-03T10:04:46.251Z,9.83
2019-05-03T10:07:20.296Z,9.88
2019-05-03T10:09:55.199Z,9.53
2019-05-03T10:12:31.791Z,9.63
2019-05-03T10:15:09.019Z,9.47
2019-05-03T10:17:45.824Z,10.57
2019-05-03T10:20:18.859Z,10.23
2019-05-03T10:22:54.452Z,10.60
2019-05-03T10:25:27.767Z,11.00
2019-05-03T10:28:01.631Z,10.83
2019-05-03T10:30:35.824Z,11.13
2019-05-03T10:33:09.694Z,12.07
2019-05-03T10:35:44.989Z,11.87
2019-05-03T10:38:21.429Z,12.57
2019-05-03T10:40:55.788Z,12.40
2019-05-03T10:43:29.283Z,11.03
2019-05-03T10:46:04.980Z,11.60
2019-05-03T10:48:38.260Z,13.28
2019-05-03T10:51:12.759Z,12.20
2019-05-03T10:53:48.165Z,12.27
2019-05-03T10:56:24.518Z,13.00
2019-05-03T10:58:57.450Z,12.30
2019-05-03T11:01:32.079Z,14.20
2019-05-03T11:04:07.448Z,13.23
2019-05-03T11:06:45.523Z,15.30
2019-05-03T11:09:20.658Z,14.33
2019-05-03T11:11:55.546Z,14.43
2019-05-03T11:14:29.896Z,15.63
2019-05-03T11:17:06.142Z,15.20
2019-05-03T11:19:45.265Z,15.65
2019-05-03T11:22:19.668Z,14.73
2019-05-03T11:24:56.229Z,15.07
2019-05-03T11:27:35.265Z,15.40
2019-05-03T11:30:11.264Z,15.50
2019-05-03T11:32:52.361Z,15.73
2019-05-03T11:35:28.969Z,19.03
2019-05-03T11:38:05.806Z,17.50
2019-05-03T11:40:42.692Z,16.27
2019-05-03T11:43:16.750Z,19.07
2019-05-03T11:45:51.471Z,18.33
2019-05-03T11:48:28.344Z,18.02
2019-05-03T11:51:07.984Z,16.87
2019-05-03T11:53:45.034Z,17.17
2019-05-03T11:56:30.912Z,17.80
2019-05-03T11:59:02.506Z,20.33
2019-05-03T12:01:37.221Z,20.07
2019-05-03T12:04:12.977Z,19.65
2019-05-03T12:06:47.177Z,19.40
2019-05-03T12:09:21.622Z,20.63
2019-05-03T12:11:55.911Z,21.50
2019-05-03T12:14:31.494Z,22.73
2019-05-03T12:17:18.233Z,22.52
2019-05-03T12:19:52.106Z,21.03
2019-05-03T12:22:27.957Z,20.67
2019-05-03T12:25:02.794Z,22.52
2019-05-03T12:27:37.873Z,20.87
2019-05-03T12:30:15.606Z,22.53
2019-05-03T12:33:36.641Z,21.07
2019-05-03T12:35:51.614Z,21.60
2019-05-03T12:38:29.860Z,21.17
2019-05-03T12:41:06.454Z,20.50
2019-05-03T12:43:41.738Z,20.27
2019-05-03T12:46:16.857Z,20.47
2019-05-03T12:48:51.301Z,19.50
2019-05-03T12:51:26.229Z,18.23
2019-05-03T12:54:00.480Z,18.40
2019-05-03T12:56:35.779Z,18.03
2019-05-03T12:59:10.276Z,17.93
2019-05-03T13:01:46.316Z,17.40
2019-05-03T13:04:20.061Z,17.67
2019-05-03T13:06:54.952Z,17.43
2019-05-03T13:09:29.517Z,16.50
2019-05-03T13:12:05.442Z,17.07
2019-05-03T13:14:38.772Z,16.83
2019-05-03T13:17:15.120Z,16.10
2019-05-03T13:19:48.035Z,16.03
2019-05-03T13:22:22.390Z,15.97
2019-05-03T13:24:58.189Z,17.00
2019-05-03T13:27:31.839Z,15.93
2019-05-03T13:30:09.661Z,15.98
2019-05-03T13:32:54.924Z,16.73
2019-05-03T13:35:44.945Z,16.23
2019-05-03T13:38:35.701Z,15.97
2019-05-03T13:41:16.959Z,15.83
2019-05-03T13:43:54.895Z,15.60
2019-05-03T13:46:30.968Z,15.47
2019-05-03T13:49:10.559Z,15.13
2019-05-03T13:51:45.318Z,16.63
2019-05-03T13:54:20.813Z,16.10
2019-05-03T13:56:56.943Z,16.40
2019-05-03T13:59:31.923Z,15.80
2019-05-03T14:02:15.156Z,77.13
2019-05-03T14:04:50.154Z,16.00
2019-05-03T14:07:19.330Z,16.50
2019-05-03T14:09:55.707Z,15.83
2019-05-03T14:12:30.658Z,14.47
2019-05-03T14:15:05.641Z,15.23
2019-05-03T14:17:40.664Z,14.85
2019-05-03T14:20:18.609Z,15.37
2019-05-03T14:22:56.717Z,14.40
2019-05-03T14:25:34.987Z,14.50
2019-05-03T14:28:09.418Z,15.23
2019-05-03T14:30:45.189Z,14.90
2019-05-03T14:33:28.028Z,14.47
2019-05-03T14:36:01.007Z,14.27
2019-05-03T14:38:37.641Z,13.60
2019-05-03T14:41:18.878Z,14.33
2019-05-03T14:43:55.437Z,26.37
2019-05-03T14:46:32.666Z,15.27
2019-05-03T14:49:05.535Z,16.33
2019-05-03T14:51:56.692Z,13.50
2019-05-03T14:54:34.155Z,13.90
2019-05-03T14:57:07.874Z,14.63
2019-05-03T14:59:42.593Z,14.90
2019-05-03T15:02:16.591Z,14.57
2019-05-03T15:04:50.728Z,13.70
2019-05-03T15:07:26.651Z,15.50
2019-05-03T15:10:00.262Z,14.93
2019-05-03T15:12:35.935Z,15.47
2019-05-03T15:15:10.762Z,15.20
2019-05-03T15:17:45.762Z,14.97
2019-05-03T15:20:20.532Z,15.30
2019-05-03T15:22:56.104Z,15.17
2019-05-03T15:25:34.418Z,15.33
2019-05-03T15:28:07.185Z,14.57
2019-05-03T15:30:41.412Z,15.20
2019-05-03T15:33:15.599Z,15.75
2019-05-03T15:35:49.742Z,15.10
2019-05-03T15:38:23.538Z,14.97
2019-05-03T15:40:57.737Z,15.10
2019-05-03T15:43:31.947Z,14.43
2019-05-03T15:46:06.483Z,14.63
2019-05-03T15:48:42.338Z,14.90
2019-05-03T15:51:17.387Z,15.03
2019-05-03T15:53:51.649Z,14.60
2019-05-03T15:56:26.052Z,14.07
2019-05-03T15:58:59.865Z,12.77
2019-05-03T16:01:35.315Z,13.90
2019-05-03T16:04:10.097Z,13.37
2019-05-03T16:06:44.814Z,14.03
2019-05-03T16:09:19.305Z,13.47
2019-05-03T16:11:55.431Z,13.40
2019-05-03T16:14:28.359Z,13.10
2019-05-03T16:17:04.340Z,12.90
2019-05-03T16:19:37.658Z,12.53
2019-05-03T16:22:14.398Z,12.43
2019-05-03T16:24:48.901Z,13.17
2019-05-03T16:27:24.699Z,12.27
2019-05-03T16:29:58.440Z,11.70
2019-05-03T16:32:34.711Z,12.18
2019-05-03T16:35:11.053Z,11.90
2019-05-03T16:37:46.069Z,12.77
2019-05-03T16:40:19.875Z,12.03
2019-05-03T16:42:53.880Z,11.67
2019-05-03T16:45:30.563Z,12.17
2019-05-03T16:48:04.599Z,11.83
2019-05-03T16:50:38.079Z,12.60
2019-05-03T16:53:16.093Z,12.20
2019-05-03T16:55:50.291Z,12.10
2019-05-03T16:58:24.856Z,11.03
2019-05-03T17:00:59.321Z,11.48
2019-05-03T17:03:40.844Z,12.30
2019-05-03T17:06:11.782Z,11.57
2019-05-03T17:08:46.445Z,13.00
2019-05-03T17:11:20.641Z,12.77
2019-05-03T17:13:57.679Z,11.75
2019-05-03T17:16:50.025Z,12.33
2019-05-03T17:19:24.504Z,12.17
2019-05-03T17:21:59.102Z,12.20
2019-05-03T17:24:32.837Z,12.15
2019-05-03T17:27:07.932Z,11.90
2019-05-03T17:29:42.056Z,12.28
2019-05-03T17:32:15.675Z,12.60
2019-05-03T17:34:52.409Z,13.17
2019-05-03T17:37:26.719Z,13.87
2019-05-03T17:40:01.250Z,14.97
2019-05-03T17:42:35.794Z,15.03
2019-05-03T17:45:10.933Z,14.17
2019-05-03T17:47:45.428Z,14.80
2019-05-03T17:50:19.885Z,15.63
2019-05-03T17:52:54.665Z,15.95
2019-05-03T17:55:29.363Z,15.95
2019-05-03T17:58:04.535Z,16.53
2019-05-03T18:00:41.741Z,16.30
2019-05-03T18:03:16.601Z,17.13
2019-05-03T18:05:51.397Z,17.03
2019-05-03T18:08:25.451Z,16.73
2019-05-03T18:11:01.344Z,17.00
2019-05-03T18:13:35.617Z,17.53
2019-05-03T18:16:09.801Z,17.33
2019-05-03T18:18:45.612Z,16.60
2019-05-03T18:21:19.765Z,18.33
2019-05-03T18:23:54.506Z,18.00
2019-05-03T18:26:29.563Z,17.90
2019-05-03T18:29:05.803Z,17.57
2019-05-03T18:31:40.322Z,18.62
2019-05-03T18:34:19.775Z,18.00
2019-05-03T18:36:49.558Z,18.60
2019-05-03T18:39:25.093Z,18.00
2019-05-03T18:41:59.547Z,18.07
2019-05-03T18:44:34.596Z,18.10
2019-05-03T18:47:09.272Z,18.60
2019-05-03T18:49:44.709Z,18.80
2019-05-03T18:52:19.888Z,18.93
2019-05-03T18:54:56.235Z,18.40
2019-05-03T18:57:31.025Z,18.57
2019-05-03T19:00:08.080Z,18.77
2019-05-03T19:02:40.979Z,18.85
2019-05-03T19:05:15.293Z,19.73
2019-05-03T19:07:50.008Z,18.67
2019-05-03T19:10:27.801Z,19.07
2019-05-03T19:13:01.452Z,19.37
2019-05-03T19:15:35.350Z,19.73
2019-05-03T19:18:09.535Z,18.60
2019-05-03T19:20:43.168Z,19.93
2019-05-03T19:23:16.786Z,18.63
2019-05-03T19:25:50.639Z,19.45
2019-05-03T19:28:24.985Z,18.40
2019-05-03T19:30:58.506Z,19.23
2019-05-03T19:33:34.761Z,17.97
2019-05-03T19:36:08.429Z,18.50
2019-05-03T19:39:01.615Z,18.55
2019-05-03T19:41:36.645Z,17.48
2019-05-03T19:44:10.125Z,19.50
2019-05-03T19:46:44.521Z,18.30
2019-05-03T19:49:18.648Z,17.93
2019-05-03T19:51:54.260Z,18.03
2019-05-03T19:54:27.371Z,17.90
2019-05-03T19:57:00.744Z,17.67
2019-05-03T19:59:34.810Z,17.60
2019-05-03T20:02:09.932Z,17.23
2019-05-03T20:04:43.529Z,17.12
2019-05-03T20:07:16.905Z,16.87
2019-05-03T20:09:50.586Z,18.32
2019-05-03T20:12:24.633Z,16.63
2019-05-03T20:14:58.775Z,17.70
2019-05-03T20:17:34.596Z,17.43
2019-05-03T20:20:09.534Z,16.40
2019-05-03T20:22:45.112Z,15.67
2019-05-03T20:25:19.532Z,16.00
2019-05-03T20:27:53.428Z,15.83
2019-05-03T20:30:27.162Z,16.33
2019-05-03T20:33:00.849Z,15.60
2019-05-03T20:35:35.673Z,14.97
2019-05-03T20:38:09.466Z,15.00
2019-05-03T20:40:44.970Z,14.77
2019-05-03T20:43:18.101Z,13.90
2019-05-03T20:45:54.780Z,15.40
2019-05-03T20:48:27.670Z,14.17
2019-05-03T20:51:03.018Z,14.67
2019-05-03T20:53:37.822Z,14.63
2019-05-03T20:56:11.860Z,13.33
2019-05-03T20:58:45.272Z,13.77
2019-05-03T21:01:19.030Z,13.50
2019-05-03T21:03:54.234Z,13.28
2019-05-03T21:06:35.450Z,12.77
2019-05-03T21:09:05.356Z,13.33
2019-05-03T21:11:39.099Z,14.37
2019-05-03T21:14:12.682Z,12.67
2019-05-03T21:16:47.915Z,14.10
2019-05-03T21:19:21.414Z,13.50
2019-05-03T21:21:55.039Z,12.83
2019-05-03T21:24:34.747Z,13.70
2019-05-03T21:27:09.187Z,12.87
2019-05-03T21:29:45.152Z,13.70
2019-05-03T21:32:17.888Z,12.73
2019-05-03T21:34:51.525Z,12.40
2019-05-03T21:37:25.188Z,12.60
2019-05-03T21:39:58.663Z,13.67
2019-05-03T21:42:32.311Z,11.87
2019-05-03T21:45:06.865Z,11.80
2019-05-03T21:47:40.584Z,11.93
2019-05-03T21:50:15.786Z,12.20
2019-05-03T21:52:49.602Z,11.53
2019-05-03T21:55:24.705Z,10.97
2019-05-03T21:57:57.889Z,11.08
2019-05-03T22:00:32.037Z,11.47
2019-05-03T22:03:05.607Z,11.15
2019-05-03T22:05:51.787Z,11.53
2019-05-03T22:11:14.904Z,11.10
2019-05-03T22:13:48.171Z,10.93
2019-05-03T22:16:21.704Z,11.23
2019-05-03T22:18:55.245Z,10.73
2019-05-03T22:21:29.424Z,10.75
2019-05-03T22:24:04.452Z,11.43
2019-05-03T22:26:38.048Z,10.60
2019-05-03T22:29:14.381Z,10.73
2019-05-03T22:31:48.069Z,11.00
2019-05-03T22:34:25.615Z,10.70
2019-05-03T22:36:56.445Z,11.00
2019-05-03T22:39:29.901Z,11.20
2019-05-03T22:42:04.561Z,10.80
2019-05-03T22:44:39.951Z,10.47
2019-05-03T22:47:14.716Z,10.80
2019-05-03T22:49:48.238Z,10.70
2019-05-03T22:52:21.851Z,10.80
2019-05-03T22:54:55.607Z,10.97
2019-05-03T22:57:29.163Z,10.77
2019-05-03T23:00:06.057Z,10.20
2019-05-03T23:02:37.291Z,11.00
2019-05-03T23:05:11.107Z,10.90
2019-05-03T23:07:46.883Z,11.33
2019-05-03T23:10:19.838Z,11.88
2019-05-03T23:12:54.349Z,11.77
2019-05-03T23:15:29.672Z,11.63
2019-05-03T23:18:04.896Z,12.67
2019-05-03T23:20:38.455Z,12.23
2019-05-03T23:23:14.395Z,11.23
2019-05-03T23:25:47.465Z,12.10
2019-05-03T23:28:21.340Z,12.80
2019-05-03T23:30:55.284Z,12.90
2019-05-03T23:33:28.935Z,13.70
2019-05-03T23:36:04.404Z,14.17
2019-05-03T23:38:37.599Z,14.53
2019-05-03T23:41:11.531Z,16.20
2019-05-03T23:43:45.083Z,15.23
2019-05-03T23:46:18.899Z,17.10
2019-05-03T23:48:52.463Z,17.03
2019-05-03T23:51:26.028Z,16.25
2019-05-03T23:54:00.053Z,17.80
2019-05-03T23:56:35.027Z,23.07
2019-05-03T23:59:08.576Z,18.23
